sensor_id;sensor_type;location;lat;lon;timestamp;temperature;humidity
25716;DHT22;13573;50.936;4.328;2023-03-03T00:00:46;2.40;99.90
25716;DHT22;13573;50.936;4.328;2023-03-03T00:03:16;3.70;99.90
25716;DHT22;13573;50.936;4.328;2023-03-03T00:05:44;1.90;99.90
25716;DHT22;13573;50.936;4.328;2023-03-03T00:08:11;3.60;99.90
25716;DHT22;13573;50.936;4.328;2023-03-03T00:10:38;3.10;99.90
25716;DHT22;13573;50.936;4.328;2023-03-03T00:13:14;3.30;99.90
25716;DHT22;13573;50.936;4.328;2023-03-03T00:15:43;2.80;99.90
25716;DHT22;13573;50.936;4.328;2023-03-03T00:18:20;2.80;99.90
25716;DHT22;13573;50.936;4.328;2023-03-03T00:20:52;2.60;99.90
25716;DHT22;13573;50.936;4.328;2023-03-03T00:23:27;3.10;99.90
25716;DHT22;13573;50.936;4.328;2023-03-03T00:25:55;3.20;99.90
25716;DHT22;13573;50.936;4.328;2023-03-03T00:28:26;3.20;99.90
25716;DHT22;13573;50.936;4.328;2023-03-03T00:30:56;3.00;99.90
25716;DHT22;13573;50.936;4.328;2023-03-03T00:33:31;2.90;99.90
25716;DHT22;13573;50.936;4.328;2023-03-03T00:36:09;3.30;99.90
25716;DHT22;13573;50.936;4.328;2023-03-03T00:38:34;3.10;99.90
25716;DHT22;13573;50.936;4.328;2023-03-03T00:41:06;3.40;99.90
25716;DHT22;13573;50.936;4.328;2023-03-03T00:43:35;2.60;99.90
25716;DHT22;13573;50.936;4.328;2023-03-03T00:46:02;3.70;99.90
25716;DHT22;13573;50.936;4.328;2023-03-03T00:48:49;3.00;99.90
25716;DHT22;13573;50.936;4.328;2023-03-03T00:51:26;2.80;99.90
25716;DHT22;13573;50.936;4.328;2023-03-03T00:53:54;3.10;99.90
25716;DHT22;13573;50.936;4.328;2023-03-03T00:56:21;3.10;99.90
25716;DHT22;13573;50.936;4.328;2023-03-03T00:58:48;3.00;99.90
25716;DHT22;13573;50.936;4.328;2023-03-03T01:01:16;2.00;99.90
25716;DHT22;13573;50.936;4.328;2023-03-03T01:03:43;2.90;99.90
25716;DHT22;13573;50.936;4.328;2023-03-03T01:06:11;3.20;99.90
25716;DHT22;13573;50.936;4.328;2023-03-03T01:08:38;3.00;99.90
25716;DHT22;13573;50.936;4.328;2023-03-03T01:11:08;2.80;99.90
25716;DHT22;13573;50.936;4.328;2023-03-03T01:13:39;2.90;99.90
25716;DHT22;13573;50.936;4.328;2023-03-03T01:16:06;2.80;99.90
25716;DHT22;13573;50.936;4.328;2023-03-03T01:18:34;2.60;99.90
25716;DHT22;13573;50.936;4.328;2023-03-03T01:21:02;3.20;99.90
25716;DHT22;13573;50.936;4.328;2023-03-03T01:23:30;2.80;99.90
25716;DHT22;13573;50.936;4.328;2023-03-03T01:25:57;3.00;99.90
25716;DHT22;13573;50.936;4.328;2023-03-03T01:28:23;3.10;99.90
25716;DHT22;13573;50.936;4.328;2023-03-03T01:30:50;3.00;99.90
25716;DHT22;13573;50.936;4.328;2023-03-03T01:33:17;1.10;99.90
25716;DHT22;13573;50.936;4.328;2023-03-03T01:40:40;2.80;99.90
25716;DHT22;13573;50.936;4.328;2023-03-03T01:43:07;2.50;99.90
25716;DHT22;13573;50.936;4.328;2023-03-03T01:46:18;2.50;99.90
25716;DHT22;13573;50.936;4.328;2023-03-03T01:48:17;2.20;99.90
25716;DHT22;13573;50.936;4.328;2023-03-03T01:51:03;2.60;99.90
25716;DHT22;13573;50.936;4.328;2023-03-03T01:53:40;2.50;99.90
25716;DHT22;13573;50.936;4.328;2023-03-03T01:56:07;2.40;99.90
25716;DHT22;13573;50.936;4.328;2023-03-03T01:58:36;2.10;99.90
25716;DHT22;13573;50.936;4.328;2023-03-03T02:01:07;2.30;99.90
25716;DHT22;13573;50.936;4.328;2023-03-03T02:03:34;0.90;99.90
25716;DHT22;13573;50.936;4.328;2023-03-03T02:06:07;2.00;99.90
25716;DHT22;13573;50.936;4.328;2023-03-03T02:08:42;2.30;99.90
25716;DHT22;13573;50.936;4.328;2023-03-03T02:11:10;2.10;99.90
25716;DHT22;13573;50.936;4.328;2023-03-03T02:13:37;2.20;99.90
25716;DHT22;13573;50.936;4.328;2023-03-03T02:16:05;2.30;99.90
25716;DHT22;13573;50.936;4.328;2023-03-03T02:18:32;1.10;99.90
25716;DHT22;13573;50.936;4.328;2023-03-03T02:21:06;2.50;99.90
25716;DHT22;13573;50.936;4.328;2023-03-03T02:23:49;2.00;99.90
25716;DHT22;13573;50.936;4.328;2023-03-03T02:26:23;2.00;99.90
25716;DHT22;13573;50.936;4.328;2023-03-03T02:28:51;2.20;99.90
25716;DHT22;13573;50.936;4.328;2023-03-03T02:31:21;2.00;99.90
25716;DHT22;13573;50.936;4.328;2023-03-03T02:33:49;1.60;99.90
25716;DHT22;13573;50.936;4.328;2023-03-03T02:36:18;1.80;99.90
25716;DHT22;13573;50.936;4.328;2023-03-03T02:41:41;1.70;99.90
25716;DHT22;13573;50.936;4.328;2023-03-03T02:44:12;1.80;99.90
25716;DHT22;13573;50.936;4.328;2023-03-03T02:46:45;1.70;99.90
25716;DHT22;13573;50.936;4.328;2023-03-03T02:49:16;1.60;99.90
25716;DHT22;13573;50.936;4.328;2023-03-03T02:51:42;1.60;99.90
25716;DHT22;13573;50.936;4.328;2023-03-03T02:54:10;1.70;99.90
25716;DHT22;13573;50.936;4.328;2023-03-03T02:56:38;1.90;99.90
25716;DHT22;13573;50.936;4.328;2023-03-03T02:59:06;2.10;99.90
25716;DHT22;13573;50.936;4.328;2023-03-03T03:01:33;2.20;99.90
25716;DHT22;13573;50.936;4.328;2023-03-03T03:04:11;2.00;99.90
25716;DHT22;13573;50.936;4.328;2023-03-03T03:06:38;1.90;99.90
25716;DHT22;13573;50.936;4.328;2023-03-03T03:09:06;2.20;99.90
25716;DHT22;13573;50.936;4.328;2023-03-03T03:11:34;2.20;99.90
25716;DHT22;13573;50.936;4.328;2023-03-03T03:14:03;3.10;99.90
25716;DHT22;13573;50.936;4.328;2023-03-03T03:16:31;2.90;99.90
25716;DHT22;13573;50.936;4.328;2023-03-03T03:18:59;1.60;99.90
25716;DHT22;13573;50.936;4.328;2023-03-03T03:21:27;3.60;99.90
25716;DHT22;13573;50.936;4.328;2023-03-03T03:23:54;2.70;99.90
25716;DHT22;13573;50.936;4.328;2023-03-03T03:26:22;2.90;99.90
25716;DHT22;13573;50.936;4.328;2023-03-03T03:28:49;3.20;99.90
25716;DHT22;13573;50.936;4.328;2023-03-03T03:31:17;2.80;99.90
25716;DHT22;13573;50.936;4.328;2023-03-03T03:33:44;3.10;99.90
25716;DHT22;13573;50.936;4.328;2023-03-03T03:36:11;2.90;99.90
25716;DHT22;13573;50.936;4.328;2023-03-03T03:38:38;2.50;99.90
25716;DHT22;13573;50.936;4.328;2023-03-03T03:41:06;2.50;99.90
25716;DHT22;13573;50.936;4.328;2023-03-03T03:43:33;3.40;99.90
25716;DHT22;13573;50.936;4.328;2023-03-03T03:46:00;3.20;99.90
25716;DHT22;13573;50.936;4.328;2023-03-03T03:48:27;2.80;99.90
25716;DHT22;13573;50.936;4.328;2023-03-03T03:50:54;3.00;99.90
25716;DHT22;13573;50.936;4.328;2023-03-03T03:53:21;2.80;99.90
25716;DHT22;13573;50.936;4.328;2023-03-03T03:55:47;2.70;99.90
25716;DHT22;13573;50.936;4.328;2023-03-03T03:58:15;2.80;99.90
25716;DHT22;13573;50.936;4.328;2023-03-03T04:00:43;3.00;99.90
25716;DHT22;13573;50.936;4.328;2023-03-03T04:05:39;2.90;99.90
25716;DHT22;13573;50.936;4.328;2023-03-03T04:08:06;3.20;99.90
25716;DHT22;13573;50.936;4.328;2023-03-03T04:10:33;3.00;99.90
25716;DHT22;13573;50.936;4.328;2023-03-03T04:13:00;3.30;99.90
25716;DHT22;13573;50.936;4.328;2023-03-03T04:15:26;3.20;99.90
25716;DHT22;13573;50.936;4.328;2023-03-03T04:17:53;3.00;99.90
25716;DHT22;13573;50.936;4.328;2023-03-03T04:20:19;3.80;99.90
25716;DHT22;13573;50.936;4.328;2023-03-03T04:22:46;3.30;99.90
25716;DHT22;13573;50.936;4.328;2023-03-03T04:25:14;3.50;99.90
25716;DHT22;13573;50.936;4.328;2023-03-03T04:27:41;3.40;99.90
25716;DHT22;13573;50.936;4.328;2023-03-03T04:30:10;3.30;99.90
25716;DHT22;13573;50.936;4.328;2023-03-03T04:32:37;2.50;99.90
25716;DHT22;13573;50.936;4.328;2023-03-03T04:35:04;2.70;99.90
25716;DHT22;13573;50.936;4.328;2023-03-03T04:37:30;2.40;99.90
25716;DHT22;13573;50.936;4.328;2023-03-03T04:39:57;2.50;99.90
25716;DHT22;13573;50.936;4.328;2023-03-03T04:42:25;2.50;99.90
25716;DHT22;13573;50.936;4.328;2023-03-03T04:47:19;2.80;99.90
25716;DHT22;13573;50.936;4.328;2023-03-03T04:49:46;2.40;99.90
25716;DHT22;13573;50.936;4.328;2023-03-03T04:52:13;2.40;99.90
25716;DHT22;13573;50.936;4.328;2023-03-03T04:54:39;2.40;99.90
25716;DHT22;13573;50.936;4.328;2023-03-03T04:57:06;1.50;99.90
25716;DHT22;13573;50.936;4.328;2023-03-03T04:59:34;2.20;99.90
25716;DHT22;13573;50.936;4.328;2023-03-03T05:02:02;2.60;99.90
25716;DHT22;13573;50.936;4.328;2023-03-03T05:04:31;2.50;99.90
25716;DHT22;13573;50.936;4.328;2023-03-03T05:06:57;2.20;99.90
25716;DHT22;13573;50.936;4.328;2023-03-03T05:09:24;2.50;99.90
25716;DHT22;13573;50.936;4.328;2023-03-03T05:11:51;2.20;99.90
25716;DHT22;13573;50.936;4.328;2023-03-03T05:14:17;2.40;99.90
25716;DHT22;13573;50.936;4.328;2023-03-03T05:16:44;2.10;99.90
25716;DHT22;13573;50.936;4.328;2023-03-03T05:19:11;2.10;99.90
25716;DHT22;13573;50.936;4.328;2023-03-03T05:21:37;2.00;99.90
25716;DHT22;13573;50.936;4.328;2023-03-03T05:24:09;0.80;99.90
25716;DHT22;13573;50.936;4.328;2023-03-03T05:26:36;2.40;99.90
25716;DHT22;13573;50.936;4.328;2023-03-03T05:29:03;1.70;99.90
25716;DHT22;13573;50.936;4.328;2023-03-03T05:31:29;1.70;99.90
25716;DHT22;13573;50.936;4.328;2023-03-03T05:33:56;1.80;99.90
25716;DHT22;13573;50.936;4.328;2023-03-03T05:36:23;1.80;99.90
25716;DHT22;13573;50.936;4.328;2023-03-03T05:38:50;1.60;99.90
25716;DHT22;13573;50.936;4.328;2023-03-03T05:43:43;1.50;99.90
25716;DHT22;13573;50.936;4.328;2023-03-03T05:46:10;2.00;99.90
25716;DHT22;13573;50.936;4.328;2023-03-03T05:48:36;1.70;99.90
25716;DHT22;13573;50.936;4.328;2023-03-03T05:51:05;1.20;99.90
25716;DHT22;13573;50.936;4.328;2023-03-03T05:53:31;0.40;99.90
25716;DHT22;13573;50.936;4.328;2023-03-03T05:55:58;2.00;99.90
25716;DHT22;13573;50.936;4.328;2023-03-03T05:58:25;2.20;99.90
25716;DHT22;13573;50.936;4.328;2023-03-03T06:00:51;1.90;99.90
25716;DHT22;13573;50.936;4.328;2023-03-03T06:03:19;2.20;99.90
25716;DHT22;13573;50.936;4.328;2023-03-03T06:05:47;1.70;99.90
25716;DHT22;13573;50.936;4.328;2023-03-03T06:10:41;1.80;99.90
25716;DHT22;13573;50.936;4.328;2023-03-03T06:13:08;0.70;99.90
25716;DHT22;13573;50.936;4.328;2023-03-03T06:15:35;2.50;99.90
25716;DHT22;13573;50.936;4.328;2023-03-03T06:18:01;2.20;99.90
25716;DHT22;13573;50.936;4.328;2023-03-03T06:20:28;1.80;99.90
25716;DHT22;13573;50.936;4.328;2023-03-03T06:22:55;2.10;99.90
25716;DHT22;13573;50.936;4.328;2023-03-03T06:25:22;2.60;99.90
25716;DHT22;13573;50.936;4.328;2023-03-03T06:27:50;2.70;99.90
25716;DHT22;13573;50.936;4.328;2023-03-03T06:30:18;2.70;99.90
25716;DHT22;13573;50.936;4.328;2023-03-03T06:32:45;2.50;99.90
25716;DHT22;13573;50.936;4.328;2023-03-03T06:35:12;1.40;99.90
25716;DHT22;13573;50.936;4.328;2023-03-03T06:37:38;2.60;99.90
25716;DHT22;13573;50.936;4.328;2023-03-03T06:40:06;2.80;99.90
25716;DHT22;13573;50.936;4.328;2023-03-03T06:42:33;2.60;99.90
25716;DHT22;13573;50.936;4.328;2023-03-03T06:45:00;1.30;99.90
25716;DHT22;13573;50.936;4.328;2023-03-03T06:47:26;2.80;99.90
25716;DHT22;13573;50.936;4.328;2023-03-03T06:49:53;2.30;99.90
25716;DHT22;13573;50.936;4.328;2023-03-03T06:52:23;2.30;99.90
25716;DHT22;13573;50.936;4.328;2023-03-03T06:57:36;0.60;99.90
25716;DHT22;13573;50.936;4.328;2023-03-03T07:00:13;2.10;99.90
25716;DHT22;13573;50.936;4.328;2023-03-03T07:05:16;2.30;99.90
25716;DHT22;13573;50.936;4.328;2023-03-03T07:07:43;2.10;99.90
25716;DHT22;13573;50.936;4.328;2023-03-03T07:10:27;2.50;99.90
25716;DHT22;13573;50.936;4.328;2023-03-03T07:12:58;2.60;99.90
25716;DHT22;13573;50.936;4.328;2023-03-03T07:17:56;2.20;99.90
25716;DHT22;13573;50.936;4.328;2023-03-03T07:20:34;1.80;99.90
25716;DHT22;13573;50.936;4.328;2023-03-03T07:23:14;2.30;99.90
25716;DHT22;13573;50.936;4.328;2023-03-03T07:25:39;2.40;99.90
25716;DHT22;13573;50.936;4.328;2023-03-03T07:28:19;2.80;99.90
25716;DHT22;13573;50.936;4.328;2023-03-03T07:30:46;2.60;99.90
25716;DHT22;13573;50.936;4.328;2023-03-03T07:33:23;1.40;99.90
25716;DHT22;13573;50.936;4.328;2023-03-03T07:35:48;2.40;99.90
25716;DHT22;13573;50.936;4.328;2023-03-03T07:38:22;2.20;99.90
25716;DHT22;13573;50.936;4.328;2023-03-03T07:40:51;2.20;99.90
25716;DHT22;13573;50.936;4.328;2023-03-03T07:43:26;2.20;99.90
25716;DHT22;13573;50.936;4.328;2023-03-03T07:45:56;2.90;99.90
25716;DHT22;13573;50.936;4.328;2023-03-03T07:48:31;1.90;99.90
25716;DHT22;13573;50.936;4.328;2023-03-03T07:51:02;2.10;99.90
25716;DHT22;13573;50.936;4.328;2023-03-03T07:53:30;2.10;99.90
25716;DHT22;13573;50.936;4.328;2023-03-03T07:56:00;2.60;99.90
25716;DHT22;13573;50.936;4.328;2023-03-03T07:58:34;2.80;99.90
25716;DHT22;13573;50.936;4.328;2023-03-03T08:03:37;1.50;99.90
25716;DHT22;13573;50.936;4.328;2023-03-03T08:08:34;2.70;99.90
25716;DHT22;13573;50.936;4.328;2023-03-03T08:11:02;3.00;99.90
25716;DHT22;13573;50.936;4.328;2023-03-03T08:13:40;3.20;99.90
25716;DHT22;13573;50.936;4.328;2023-03-03T08:16:28;3.00;99.90
25716;DHT22;13573;50.936;4.328;2023-03-03T08:18:52;2.80;99.90
25716;DHT22;13573;50.936;4.328;2023-03-03T08:21:22;2.60;99.90
25716;DHT22;13573;50.936;4.328;2023-03-03T08:23:49;3.00;99.90
25716;DHT22;13573;50.936;4.328;2023-03-03T08:26:18;2.90;99.90
25716;DHT22;13573;50.936;4.328;2023-03-03T08:28:45;3.30;99.90
25716;DHT22;13573;50.936;4.328;2023-03-03T08:31:13;3.00;99.90
25716;DHT22;13573;50.936;4.328;2023-03-03T08:33:40;2.70;99.90
25716;DHT22;13573;50.936;4.328;2023-03-03T08:36:07;2.80;99.90
25716;DHT22;13573;50.936;4.328;2023-03-03T08:41:00;2.30;99.90
25716;DHT22;13573;50.936;4.328;2023-03-03T08:50:50;2.80;99.90
25716;DHT22;13573;50.936;4.328;2023-03-03T08:53:18;2.70;99.90
25716;DHT22;13573;50.936;4.328;2023-03-03T08:55:45;2.40;99.90
25716;DHT22;13573;50.936;4.328;2023-03-03T08:58:13;2.30;99.90
25716;DHT22;13573;50.936;4.328;2023-03-03T09:00:40;2.10;99.90
25716;DHT22;13573;50.936;4.328;2023-03-03T09:03:07;1.40;99.90
25716;DHT22;13573;50.936;4.328;2023-03-03T09:05:35;1.50;99.90
25716;DHT22;13573;50.936;4.328;2023-03-03T09:08:02;2.40;99.90
25716;DHT22;13573;50.936;4.328;2023-03-03T09:10:30;2.50;99.90
25716;DHT22;13573;50.936;4.328;2023-03-03T09:13:01;2.60;99.90
25716;DHT22;13573;50.936;4.328;2023-03-03T09:15:31;1.50;99.90
25716;DHT22;13573;50.936;4.328;2023-03-03T09:18:16;2.70;99.90
25716;DHT22;13573;50.936;4.328;2023-03-03T09:23:38;2.70;99.90
25716;DHT22;13573;50.936;4.328;2023-03-03T09:26:21;2.70;99.90
25716;DHT22;13573;50.936;4.328;2023-03-03T09:31:26;3.50;99.90
25716;DHT22;13573;50.936;4.328;2023-03-03T09:33:53;2.90;99.90
25716;DHT22;13573;50.936;4.328;2023-03-03T09:36:34;2.90;99.90
25716;DHT22;13573;50.936;4.328;2023-03-03T09:39:16;3.00;99.90
25716;DHT22;13573;50.936;4.328;2023-03-03T09:42:11;3.10;99.90
25716;DHT22;13573;50.936;4.328;2023-03-03T09:44:44;2.70;99.90
25716;DHT22;13573;50.936;4.328;2023-03-03T09:55:15;3.20;99.90
25716;DHT22;13573;50.936;4.328;2023-03-03T09:57:54;3.30;99.90
25716;DHT22;13573;50.936;4.328;2023-03-03T10:00:34;2.00;99.90
25716;DHT22;13573;50.936;4.328;2023-03-03T10:03:16;2.50;99.90
25716;DHT22;13573;50.936;4.328;2023-03-03T10:08:17;2.60;99.90
25716;DHT22;13573;50.936;4.328;2023-03-03T10:11:00;3.90;99.90
25716;DHT22;13573;50.936;4.328;2023-03-03T10:19:00;4.60;99.90
25716;DHT22;13573;50.936;4.328;2023-03-03T10:21:35;4.50;99.90
25716;DHT22;13573;50.936;4.328;2023-03-03T10:24:14;4.50;99.90
25716;DHT22;13573;50.936;4.328;2023-03-03T10:26:49;4.40;99.90
25716;DHT22;13573;50.936;4.328;2023-03-03T10:32:11;4.40;99.90
25716;DHT22;13573;50.936;4.328;2023-03-03T10:42:50;4.80;99.90
25716;DHT22;13573;50.936;4.328;2023-03-03T10:47:56;5.20;99.90
25716;DHT22;13573;50.936;4.328;2023-03-03T10:50:27;5.40;99.90
25716;DHT22;13573;50.936;4.328;2023-03-03T10:58:11;5.50;99.90
25716;DHT22;13573;50.936;4.328;2023-03-03T11:00:45;5.40;99.90
25716;DHT22;13573;50.936;4.328;2023-03-03T11:05:54;4.80;99.90
25716;DHT22;13573;50.936;4.328;2023-03-03T11:08:29;6.00;99.90
25716;DHT22;13573;50.936;4.328;2023-03-03T11:13:52;6.10;99.90
25716;DHT22;13573;50.936;4.328;2023-03-03T11:16:34;4.90;99.90
25716;DHT22;13573;50.936;4.328;2023-03-03T11:19:25;6.00;99.90
25716;DHT22;13573;50.936;4.328;2023-03-03T11:21:59;6.10;99.90
25716;DHT22;13573;50.936;4.328;2023-03-03T11:24:43;6.30;99.90
25716;DHT22;13573;50.936;4.328;2023-03-03T11:27:17;6.10;99.90
25716;DHT22;13573;50.936;4.328;2023-03-03T11:30:07;6.70;99.90
25716;DHT22;13573;50.936;4.328;2023-03-03T11:32:37;6.70;99.90
25716;DHT22;13573;50.936;4.328;2023-03-03T11:37:39;6.70;99.90
25716;DHT22;13573;50.936;4.328;2023-03-03T11:40:15;7.00;99.90
25716;DHT22;13573;50.936;4.328;2023-03-03T11:42:51;7.30;99.90
25716;DHT22;13573;50.936;4.328;2023-03-03T11:45:20;7.60;99.90
25716;DHT22;13573;50.936;4.328;2023-03-03T11:47:58;7.40;99.90
25716;DHT22;13573;50.936;4.328;2023-03-03T11:50:29;7.90;99.90
25716;DHT22;13573;50.936;4.328;2023-03-03T11:53:39;8.30;99.90
25716;DHT22;13573;50.936;4.328;2023-03-03T11:55:52;8.90;99.90
25716;DHT22;13573;50.936;4.328;2023-03-03T11:58:24;8.70;99.90
25716;DHT22;13573;50.936;4.328;2023-03-03T12:00:55;8.60;99.90
25716;DHT22;13573;50.936;4.328;2023-03-03T12:08:30;8.60;99.90
25716;DHT22;13573;50.936;4.328;2023-03-03T12:13:41;8.90;99.90
25716;DHT22;13573;50.936;4.328;2023-03-03T12:16:19;9.10;99.90
25716;DHT22;13573;50.936;4.328;2023-03-03T12:19:11;11.40;99.90
25716;DHT22;13573;50.936;4.328;2023-03-03T12:22:03;11.20;99.90
25716;DHT22;13573;50.936;4.328;2023-03-03T12:27:40;11.70;99.90
25716;DHT22;13573;50.936;4.328;2023-03-03T12:33:01;13.60;99.90
25716;DHT22;13573;50.936;4.328;2023-03-03T12:35:35;13.50;99.90
25716;DHT22;13573;50.936;4.328;2023-03-03T12:38:17;12.10;99.90
25716;DHT22;13573;50.936;4.328;2023-03-03T12:40:49;13.60;99.90
25716;DHT22;13573;50.936;4.328;2023-03-03T12:43:27;13.90;99.90
25716;DHT22;13573;50.936;4.328;2023-03-03T12:46:00;14.30;99.90
25716;DHT22;13573;50.936;4.328;2023-03-03T12:48:34;14.40;99.90
25716;DHT22;13573;50.936;4.328;2023-03-03T12:51:09;14.00;99.90
25716;DHT22;13573;50.936;4.328;2023-03-03T12:53:44;13.20;99.90
25716;DHT22;13573;50.936;4.328;2023-03-03T12:56:12;12.80;99.90
25716;DHT22;13573;50.936;4.328;2023-03-03T12:58:58;12.90;99.90
25716;DHT22;13573;50.936;4.328;2023-03-03T13:01:31;12.80;99.90
25716;DHT22;13573;50.936;4.328;2023-03-03T13:07:11;12.30;99.90
25716;DHT22;13573;50.936;4.328;2023-03-03T13:12:55;13.50;99.90
25716;DHT22;13573;50.936;4.328;2023-03-03T13:15:20;12.80;99.90
25716;DHT22;13573;50.936;4.328;2023-03-03T13:17:56;13.90;99.90
25716;DHT22;13573;50.936;4.328;2023-03-03T13:20:27;14.90;99.90
25716;DHT22;13573;50.936;4.328;2023-03-03T13:23:06;15.60;99.90
25716;DHT22;13573;50.936;4.328;2023-03-03T13:25:59;14.60;99.90
25716;DHT22;13573;50.936;4.328;2023-03-03T13:33:33;14.00;99.90
25716;DHT22;13573;50.936;4.328;2023-03-03T13:38:39;15.00;99.90
25716;DHT22;13573;50.936;4.328;2023-03-03T13:41:15;14.70;99.90
25716;DHT22;13573;50.936;4.328;2023-03-03T13:43:48;14.50;99.90
25716;DHT22;13573;50.936;4.328;2023-03-03T13:46:25;15.80;99.90
25716;DHT22;13573;50.936;4.328;2023-03-03T13:49:00;16.10;99.90
25716;DHT22;13573;50.936;4.328;2023-03-03T13:51:40;16.50;99.90
25716;DHT22;13573;50.936;4.328;2023-03-03T13:54:17;16.50;99.90
25716;DHT22;13573;50.936;4.328;2023-03-03T14:02:28;15.90;99.90
25716;DHT22;13573;50.936;4.328;2023-03-03T14:07:51;16.70;99.90
25716;DHT22;13573;50.936;4.328;2023-03-03T14:10:21;17.20;99.90
25716;DHT22;13573;50.936;4.328;2023-03-03T14:13:03;17.80;99.90
25716;DHT22;13573;50.936;4.328;2023-03-03T14:18:25;17.70;99.90
25716;DHT22;13573;50.936;4.328;2023-03-03T14:20:53;17.10;99.90
25716;DHT22;13573;50.936;4.328;2023-03-03T14:26:00;17.90;99.90
25716;DHT22;13573;50.936;4.328;2023-03-03T14:28:28;17.30;99.90
25716;DHT22;13573;50.936;4.328;2023-03-03T14:30:57;16.80;99.90
25716;DHT22;13573;50.936;4.328;2023-03-03T14:33:27;17.10;99.90
25716;DHT22;13573;50.936;4.328;2023-03-03T14:36:02;17.80;99.90
25716;DHT22;13573;50.936;4.328;2023-03-03T14:38:40;16.00;99.90
25716;DHT22;13573;50.936;4.328;2023-03-03T14:44:01;17.70;99.90
25716;DHT22;13573;50.936;4.328;2023-03-03T14:46:33;17.10;99.90
25716;DHT22;13573;50.936;4.328;2023-03-03T14:49:06;17.20;99.90
25716;DHT22;13573;50.936;4.328;2023-03-03T14:51:41;16.40;99.90
25716;DHT22;13573;50.936;4.328;2023-03-03T14:54:36;15.90;99.90
25716;DHT22;13573;50.936;4.328;2023-03-03T14:57:06;16.60;99.90
25716;DHT22;13573;50.936;4.328;2023-03-03T14:59:33;16.10;99.90
25716;DHT22;13573;50.936;4.328;2023-03-03T15:02:19;16.20;99.90
25716;DHT22;13573;50.936;4.328;2023-03-03T15:04:36;16.00;99.90
25716;DHT22;13573;50.936;4.328;2023-03-03T15:09:39;15.60;99.90
25716;DHT22;13573;50.936;4.328;2023-03-03T15:12:19;15.50;99.90
25716;DHT22;13573;50.936;4.328;2023-03-03T15:14:49;15.10;99.90
25716;DHT22;13573;50.936;4.328;2023-03-03T15:17:25;15.20;99.90
25716;DHT22;13573;50.936;4.328;2023-03-03T15:20:07;14.20;99.90
25716;DHT22;13573;50.936;4.328;2023-03-03T15:22:38;14.80;99.90
25716;DHT22;13573;50.936;4.328;2023-03-03T15:25:11;14.60;99.90
25716;DHT22;13573;50.936;4.328;2023-03-03T15:27:41;13.50;99.90
25716;DHT22;13573;50.936;4.328;2023-03-03T15:30:19;13.60;99.90
25716;DHT22;13573;50.936;4.328;2023-03-03T15:32:54;13.20;99.90
25716;DHT22;13573;50.936;4.328;2023-03-03T15:35:41;12.90;99.90
25716;DHT22;13573;50.936;4.328;2023-03-03T15:38:17;12.60;99.90
25716;DHT22;13573;50.936;4.328;2023-03-03T15:40:48;11.00;99.90
25716;DHT22;13573;50.936;4.328;2023-03-03T15:43:26;12.30;99.90
25716;DHT22;13573;50.936;4.328;2023-03-03T15:45:59;11.90;99.90
25716;DHT22;13573;50.936;4.328;2023-03-03T15:48:32;11.30;99.90
25716;DHT22;13573;50.936;4.328;2023-03-03T15:51:20;12.20;99.90
25716;DHT22;13573;50.936;4.328;2023-03-03T15:53:59;11.30;99.90
25716;DHT22;13573;50.936;4.328;2023-03-03T15:57:03;11.40;99.90
25716;DHT22;13573;50.936;4.328;2023-03-03T16:02:15;10.50;99.90
25716;DHT22;13573;50.936;4.328;2023-03-03T16:07:34;11.10;99.90
25716;DHT22;13573;50.936;4.328;2023-03-03T16:10:17;9.70;99.90
25716;DHT22;13573;50.936;4.328;2023-03-03T16:12:51;11.60;99.90
25716;DHT22;13573;50.936;4.328;2023-03-03T16:15:26;11.50;99.90
25716;DHT22;13573;50.936;4.328;2023-03-03T16:18:09;11.40;99.90
25716;DHT22;13573;50.936;4.328;2023-03-03T16:20:43;10.90;99.90
25716;DHT22;13573;50.936;4.328;2023-03-03T16:23:16;9.70;99.90
25716;DHT22;13573;50.936;4.328;2023-03-03T16:25:57;11.90;99.90
25716;DHT22;13573;50.936;4.328;2023-03-03T16:31:12;11.20;99.90
25716;DHT22;13573;50.936;4.328;2023-03-03T16:33:55;11.40;99.90
25716;DHT22;13573;50.936;4.328;2023-03-03T16:36:28;10.60;99.90
25716;DHT22;13573;50.936;4.328;2023-03-03T16:39:07;9.20;99.90
25716;DHT22;13573;50.936;4.328;2023-03-03T16:44:33;9.60;99.90
25716;DHT22;13573;50.936;4.328;2023-03-03T16:47:25;9.90;99.90
25716;DHT22;13573;50.936;4.328;2023-03-03T16:50:00;9.80;99.90
25716;DHT22;13573;50.936;4.328;2023-03-03T16:52:31;10.30;99.90
25716;DHT22;13573;50.936;4.328;2023-03-03T16:55:04;10.30;99.90
25716;DHT22;13573;50.936;4.328;2023-03-03T17:00:26;10.20;99.90
25716;DHT22;13573;50.936;4.328;2023-03-03T17:03:09;10.00;99.90
25716;DHT22;13573;50.936;4.328;2023-03-03T17:05:46;9.80;99.90
25716;DHT22;13573;50.936;4.328;2023-03-03T17:08:27;10.40;99.90
25716;DHT22;13573;50.936;4.328;2023-03-03T17:11:06;10.80;99.90
25716;DHT22;13573;50.936;4.328;2023-03-03T17:16:36;9.60;99.90
25716;DHT22;13573;50.936;4.328;2023-03-03T17:19:15;10.50;99.90
25716;DHT22;13573;50.936;4.328;2023-03-03T17:21:55;9.10;99.90
25716;DHT22;13573;50.936;4.328;2023-03-03T17:24:40;9.30;99.90
25716;DHT22;13573;50.936;4.328;2023-03-03T17:27:17;8.80;99.90
25716;DHT22;13573;50.936;4.328;2023-03-03T17:29:54;8.90;99.90
25716;DHT22;13573;50.936;4.328;2023-03-03T17:32:27;8.70;99.90
25716;DHT22;13573;50.936;4.328;2023-03-03T17:37:38;8.80;99.90
25716;DHT22;13573;50.936;4.328;2023-03-03T17:43:09;9.20;99.90
25716;DHT22;13573;50.936;4.328;2023-03-03T17:45:37;8.80;99.90
25716;DHT22;13573;50.936;4.328;2023-03-03T17:48:11;8.70;99.90
25716;DHT22;13573;50.936;4.328;2023-03-03T17:51:23;8.40;99.90
25716;DHT22;13573;50.936;4.328;2023-03-03T17:53:49;8.20;99.90
25716;DHT22;13573;50.936;4.328;2023-03-03T17:56:22;7.80;99.90
25716;DHT22;13573;50.936;4.328;2023-03-03T18:01:48;8.20;99.90
25716;DHT22;13573;50.936;4.328;2023-03-03T18:04:33;8.10;99.90
25716;DHT22;13573;50.936;4.328;2023-03-03T18:10:07;7.60;99.90
25716;DHT22;13573;50.936;4.328;2023-03-03T18:12:37;7.40;99.90
25716;DHT22;13573;50.936;4.328;2023-03-03T18:15:12;7.70;99.90
25716;DHT22;13573;50.936;4.328;2023-03-03T18:20:43;7.90;99.90
25716;DHT22;13573;50.936;4.328;2023-03-03T18:25:52;7.90;99.90
25716;DHT22;13573;50.936;4.328;2023-03-03T18:28:22;8.30;99.90
25716;DHT22;13573;50.936;4.328;2023-03-03T18:30:58;8.50;99.90
25716;DHT22;13573;50.936;4.328;2023-03-03T18:33:35;8.60;99.90
25716;DHT22;13573;50.936;4.328;2023-03-03T18:39:00;8.50;99.90
25716;DHT22;13573;50.936;4.328;2023-03-03T18:41:30;8.40;99.90
25716;DHT22;13573;50.936;4.328;2023-03-03T18:44:00;8.70;99.90
25716;DHT22;13573;50.936;4.328;2023-03-03T18:46:47;8.60;99.90
25716;DHT22;13573;50.936;4.328;2023-03-03T18:49:15;8.90;99.90
25716;DHT22;13573;50.936;4.328;2023-03-03T18:51:49;9.20;99.90
25716;DHT22;13573;50.936;4.328;2023-03-03T18:54:24;9.20;99.90
25716;DHT22;13573;50.936;4.328;2023-03-03T18:57:12;8.80;99.90
25716;DHT22;13573;50.936;4.328;2023-03-03T18:59:48;8.70;99.90
25716;DHT22;13573;50.936;4.328;2023-03-03T19:02:32;8.80;99.90
25716;DHT22;13573;50.936;4.328;2023-03-03T19:05:18;9.00;99.90